createdAt,value
2023-03-27T00:02:11.731Z,1.55
2023-03-27T00:04:59.411Z,3.85
2023-03-27T00:08:01.706Z,1.60
2023-03-27T00:10:49.150Z,3.78
2023-03-27T00:13:50.398Z,2.10
2023-03-27T00:16:38.527Z,2.90
2023-03-27T00:19:26.274Z,3.63
2023-03-27T00:22:13.488Z,1.48
2023-03-27T00:25:03.099Z,1.73
2023-03-27T00:27:51.131Z,2.05
2023-03-27T00:30:38.340Z,1.08
2023-03-27T00:33:26.472Z,1.17
2023-03-27T00:36:15.631Z,1.35
2023-03-27T00:39:02.906Z,1.00
2023-03-27T00:41:53.641Z,2.65
2023-03-27T00:44:43.401Z,1.02
2023-03-27T00:47:34.223Z,2.38
2023-03-27T00:50:25.290Z,2.50
2023-03-27T00:53:27.153Z,3.08
2023-03-27T00:56:18.078Z,2.88
2023-03-27T00:59:16.339Z,4.25
2023-03-27T01:02:05.038Z,4.45
2023-03-27T01:04:55.255Z,4.88
2023-03-27T01:08:01.037Z,5.47
2023-03-27T01:10:56.492Z,6.75
2023-03-27T01:13:46.869Z,6.25
2023-03-27T01:17:03.089Z,7.57
2023-03-27T01:20:01.028Z,10.73
2023-03-27T01:23:36.212Z,7.53
2023-03-27T01:27:02.041Z,6.78
2023-03-27T01:30:04.603Z,8.45
2023-03-27T01:33:29.179Z,5.03
2023-03-27T01:36:39.835Z,4.75
2023-03-27T01:40:07.725Z,4.07
2023-03-27T01:43:05.276Z,4.90
2023-03-27T01:46:01.252Z,5.70
2023-03-27T01:49:10.956Z,6.68
2023-03-27T01:52:12.545Z,5.93
2023-03-27T01:55:05.232Z,6.57
2023-03-27T01:58:00.771Z,6.47
2023-03-27T02:00:53.576Z,7.88
2023-03-27T02:03:46.505Z,11.45
2023-03-27T02:06:41.060Z,13.43
2023-03-27T02:09:37.414Z,14.68
2023-03-27T02:12:38.699Z,26.05
2023-03-27T02:15:36.071Z,26.65
2023-03-27T02:18:40.831Z,33.00
2023-03-27T02:21:28.051Z,35.70
2023-03-27T02:24:18.842Z,40.45
2023-03-27T02:27:45.204Z,31.58
2023-03-27T02:31:32.566Z,40.03
2023-03-27T02:34:32.339Z,37.58
2023-03-27T02:37:32.475Z,39.53
2023-03-27T02:40:26.679Z,45.50
2023-03-27T02:43:22.693Z,35.90
2023-03-27T02:46:13.094Z,47.75
2023-03-27T02:49:09.445Z,45.45
2023-03-27T02:52:03.529Z,44.88
2023-03-27T02:55:06.755Z,40.58
2023-03-27T02:57:59.864Z,46.03
2023-03-27T03:00:49.370Z,35.13
2023-03-27T03:03:45.309Z,40.33
2023-03-27T03:06:32.483Z,34.53
2023-03-27T03:09:19.911Z,35.85
2023-03-27T03:12:07.344Z,31.08
2023-03-27T03:14:57.674Z,32.15
2023-03-27T03:17:45.601Z,37.35
2023-03-27T03:20:34.675Z,37.03
2023-03-27T03:23:24.242Z,27.17
2023-03-27T03:26:12.246Z,29.30
2023-03-27T03:29:01.716Z,33.55
2023-03-27T03:31:53.991Z,29.23
2023-03-27T03:34:46.586Z,16.30
2023-03-27T03:37:39.119Z,24.17
2023-03-27T03:40:28.773Z,22.92
2023-03-27T03:43:15.935Z,17.70
2023-03-27T03:46:03.347Z,22.50
2023-03-27T03:48:50.542Z,21.10
2023-03-27T03:51:37.805Z,19.00
2023-03-27T03:54:24.898Z,14.07
2023-03-27T03:57:12.129Z,16.83
2023-03-27T04:00:03.867Z,20.70
2023-03-27T04:02:54.928Z,9.57
2023-03-27T04:05:47.949Z,22.10
2023-03-27T04:08:35.390Z,23.17
2023-03-27T04:11:33.118Z,12.57
2023-03-27T04:14:23.458Z,20.05
2023-03-27T04:17:11.431Z,22.05
2023-03-27T04:19:59.074Z,15.63
2023-03-27T04:22:52.534Z,16.95
2023-03-27T04:25:44.202Z,14.27
2023-03-27T04:28:34.618Z,20.10
2023-03-27T04:31:28.991Z,18.67
2023-03-27T04:34:20.505Z,19.67
2023-03-27T04:37:07.893Z,18.40
2023-03-27T04:39:56.954Z,24.50
2023-03-27T04:42:45.099Z,17.80
2023-03-27T04:45:32.554Z,25.90
2023-03-27T04:48:21.456Z,17.08
2023-03-27T04:51:32.056Z,21.35
2023-03-27T04:54:22.824Z,14.05
2023-03-27T04:57:13.025Z,16.33
2023-03-27T05:00:23.841Z,22.08
2023-03-27T05:03:11.076Z,21.58
2023-03-27T05:06:00.646Z,17.65
2023-03-27T05:08:48.716Z,14.57
2023-03-27T05:11:51.115Z,16.30
2023-03-27T05:14:40.928Z,21.45
2023-03-27T05:17:28.189Z,25.35
2023-03-27T05:20:27.917Z,21.27
2023-03-27T05:23:15.095Z,23.02
2023-03-27T05:26:07.227Z,18.42
2023-03-27T05:29:09.316Z,24.35
2023-03-27T05:32:02.197Z,15.82
2023-03-27T05:35:05.403Z,30.35
2023-03-27T05:37:56.218Z,18.63
2023-03-27T05:40:43.634Z,25.90
2023-03-27T05:43:33.665Z,19.80
2023-03-27T05:46:24.786Z,25.35
2023-03-27T05:49:15.443Z,27.20
2023-03-27T05:52:04.423Z,24.08
2023-03-27T05:55:00.396Z,19.80
2023-03-27T05:57:51.188Z,15.25
2023-03-27T06:01:26.631Z,22.27
2023-03-27T06:04:42.328Z,24.20
2023-03-27T06:07:35.155Z,18.95
2023-03-27T06:16:27.960Z,28.33
2023-03-27T06:19:24.479Z,17.92
2023-03-27T06:22:14.217Z,19.42
2023-03-27T06:25:15.118Z,17.35
2023-03-27T06:28:10.279Z,17.08
2023-03-27T06:31:24.510Z,13.50
2023-03-27T07:08:33.628Z,16.63
2023-03-27T07:20:42.012Z,19.85
2023-03-27T07:24:04.829Z,20.20
2023-03-27T07:27:45.680Z,12.15
2023-03-27T07:28:09.799Z,19.73
2023-03-27T07:30:59.591Z,13.45
2023-03-27T07:34:49.022Z,23.08
2023-03-27T07:37:59.424Z,23.45
2023-03-27T08:10:09.117Z,7.38
2023-03-27T08:17:26.246Z,6.22
2023-03-27T08:28:57.244Z,12.40
2023-03-27T08:31:02.504Z,13.77
2023-03-27T08:34:27.193Z,14.27
2023-03-27T08:37:29.609Z,9.45
2023-03-27T08:40:58.964Z,6.50
2023-03-27T08:44:17.074Z,10.02
2023-03-27T08:48:03.925Z,10.32
2023-03-27T08:58:27.654Z,7.35
2023-03-27T09:24:16.382Z,8.57
2023-03-27T09:27:22.204Z,7.43
2023-03-27T09:30:29.386Z,7.30
2023-03-27T09:33:30.117Z,7.53
2023-03-27T09:36:25.687Z,9.32
2023-03-27T09:39:23.686Z,9.77
2023-03-27T09:42:21.300Z,7.85
2023-03-27T09:45:13.079Z,7.03
2023-03-27T09:48:04.335Z,4.73
2023-03-27T09:55:33.477Z,14.00
2023-03-27T09:59:47.376Z,4.07
2023-03-27T10:03:36.924Z,6.18
2023-03-27T10:10:30.287Z,6.00
2023-03-27T10:13:40.608Z,4.32
2023-03-27T10:17:39.681Z,6.35
2023-03-27T10:21:01.671Z,9.15
2023-03-27T10:24:15.889Z,9.50
2023-03-27T10:28:25.828Z,6.70
2023-03-27T10:34:55.335Z,12.57
2023-03-27T10:37:59.535Z,11.13
2023-03-27T10:48:37.413Z,7.78
2023-03-27T11:58:57.349Z,4.68
2023-03-27T12:47:51.351Z,4.72
2023-03-27T14:24:50.801Z,6.93
2023-03-27T14:27:44.248Z,10.05
2023-03-27T14:30:52.896Z,11.40
2023-03-27T14:34:08.381Z,9.35
2023-03-27T14:36:57.481Z,9.88
2023-03-27T14:39:57.436Z,13.32
2023-03-27T14:42:54.003Z,6.45
2023-03-27T14:45:49.133Z,5.85
2023-03-27T14:48:46.871Z,10.70
2023-03-27T14:54:56.999Z,9.10
2023-03-27T14:57:55.200Z,10.55
2023-03-27T15:00:43.197Z,7.05
2023-03-27T15:03:36.863Z,8.15
2023-03-27T15:06:26.649Z,8.60
2023-03-27T15:09:20.502Z,7.43
2023-03-27T15:12:14.302Z,7.18
2023-03-27T15:15:02.891Z,7.60
2023-03-27T15:18:01.290Z,8.43
2023-03-27T15:20:55.802Z,6.38
2023-03-27T15:24:01.049Z,4.95
2023-03-27T15:26:56.773Z,4.07
2023-03-27T15:29:52.164Z,9.00
2023-03-27T15:33:09.230Z,8.25
2023-03-27T15:36:00.033Z,3.17
2023-03-27T15:38:56.070Z,6.28
2023-03-27T15:41:44.099Z,3.50
2023-03-27T15:44:34.451Z,5.57
2023-03-27T15:47:26.964Z,6.00
2023-03-27T15:50:17.394Z,4.38
2023-03-27T15:53:06.856Z,2.97
2023-03-27T15:55:58.635Z,6.68
2023-03-27T15:59:01.291Z,5.47
2023-03-27T16:01:55.225Z,10.82
2023-03-27T16:04:46.710Z,3.50
2023-03-27T16:07:43.019Z,6.25
2023-03-27T16:10:32.849Z,6.32
2023-03-27T16:13:28.479Z,6.43
2023-03-27T16:16:26.243Z,6.30
2023-03-27T16:19:19.011Z,8.95
2023-03-27T16:22:06.529Z,8.52
2023-03-27T16:24:57.195Z,7.68
2023-03-27T16:28:17.725Z,7.13
2023-03-27T16:31:25.569Z,4.05
2023-03-27T16:34:40.545Z,7.95
2023-03-27T16:37:33.284Z,5.32
2023-03-27T16:40:21.607Z,4.63
2023-03-27T16:43:12.373Z,4.43
2023-03-27T16:46:02.773Z,7.32
2023-03-27T16:48:52.923Z,5.65
2023-03-27T16:51:48.621Z,5.03
2023-03-27T16:54:38.100Z,6.80
2023-03-27T16:57:26.734Z,7.32
2023-03-27T17:00:20.514Z,6.25
2023-03-27T17:03:13.807Z,7.63
2023-03-27T17:06:25.792Z,8.20
2023-03-27T17:09:13.695Z,6.85
2023-03-27T17:12:29.010Z,6.75
2023-03-27T17:15:24.265Z,10.90
2023-03-27T17:18:14.369Z,8.38
2023-03-27T17:21:02.125Z,9.68
2023-03-27T17:23:49.693Z,13.25
2023-03-27T17:26:38.606Z,9.82
2023-03-27T17:29:31.355Z,6.85
2023-03-27T17:32:18.556Z,9.50
2023-03-27T17:35:06.523Z,19.48
2023-03-27T17:37:55.104Z,17.42
2023-03-27T17:40:42.754Z,15.27
2023-03-27T17:43:32.253Z,19.50
2023-03-27T17:46:22.183Z,17.85
2023-03-27T17:49:09.740Z,17.80
2023-03-27T17:51:59.147Z,16.05
2023-03-27T17:54:51.701Z,12.70
2023-03-27T17:57:49.189Z,15.70
2023-03-27T18:00:43.620Z,18.52
2023-03-27T18:03:33.466Z,18.75
2023-03-27T18:06:21.049Z,23.77
2023-03-27T18:09:21.736Z,21.92
2023-03-27T18:12:11.362Z,24.95
2023-03-27T18:15:04.765Z,21.50
2023-03-27T18:17:55.285Z,19.15
2023-03-27T18:20:42.933Z,18.83
2023-03-27T18:23:36.301Z,23.00
2023-03-27T18:26:37.356Z,21.50
2023-03-27T18:29:37.668Z,20.98
2023-03-27T18:32:28.363Z,17.98
2023-03-27T18:35:19.073Z,16.95
2023-03-27T18:38:09.399Z,19.77
2023-03-27T18:40:58.216Z,16.00
2023-03-27T18:43:46.459Z,14.50
2023-03-27T18:46:34.056Z,14.00
2023-03-27T18:49:25.232Z,9.00
2023-03-27T18:55:22.176Z,8.85
2023-03-27T18:58:12.282Z,9.85
2023-03-27T19:01:17.141Z,8.65
2023-03-27T19:04:10.501Z,10.65
2023-03-27T19:07:08.753Z,10.60
2023-03-27T19:09:57.371Z,8.00
2023-03-27T19:16:13.934Z,8.30
2023-03-27T19:19:02.969Z,18.85
2023-03-27T19:21:54.185Z,3.83
2023-03-27T19:24:44.185Z,4.38
2023-03-27T19:27:38.416Z,5.45
2023-03-27T19:30:26.880Z,5.13
2023-03-27T19:33:15.312Z,5.65
2023-03-27T19:39:15.659Z,4.88
2023-03-27T19:45:54.471Z,5.82
2023-03-27T19:48:50.034Z,6.57
2023-03-27T19:51:38.468Z,7.90
2023-03-27T19:54:29.984Z,10.70
2023-03-27T20:00:15.114Z,7.38
2023-03-27T20:03:03.158Z,6.93
2023-03-27T20:05:54.920Z,8.60
2023-03-27T20:08:58.423Z,6.35
2023-03-27T20:11:46.806Z,7.63
2023-03-27T20:15:07.035Z,11.02
2023-03-27T20:17:57.129Z,8.77
2023-03-27T20:20:46.392Z,12.85
2023-03-27T20:23:33.808Z,11.98
2023-03-27T20:26:31.784Z,9.68
2023-03-27T20:29:23.122Z,6.75
2023-03-27T20:32:15.633Z,6.10
2023-03-27T20:35:22.846Z,4.72
2023-03-27T20:38:16.090Z,7.97
2023-03-27T20:41:13.726Z,5.75
2023-03-27T20:44:05.468Z,6.20
2023-03-27T20:46:56.834Z,4.50
2023-03-27T20:49:47.492Z,5.22
2023-03-27T20:52:34.763Z,5.40
2023-03-27T20:55:33.572Z,11.52
2023-03-27T20:58:25.382Z,11.45
2023-03-27T21:01:19.239Z,6.63
2023-03-27T21:04:07.078Z,10.27
2023-03-27T21:06:55.404Z,11.35
2023-03-27T21:09:43.142Z,13.05
2023-03-27T21:12:32.627Z,13.73
2023-03-27T21:15:19.849Z,11.68
2023-03-27T21:18:07.188Z,12.00
2023-03-27T21:20:54.805Z,11.38
2023-03-27T21:23:42.270Z,12.25
2023-03-27T21:26:33.402Z,17.00
2023-03-27T21:29:21.019Z,14.88
2023-03-27T21:32:10.455Z,15.85
2023-03-27T21:34:59.188Z,15.65
2023-03-27T21:37:46.421Z,12.50
2023-03-27T21:40:35.150Z,10.70
2023-03-27T21:43:24.595Z,14.30
2023-03-27T21:46:12.332Z,11.25
2023-03-27T21:48:59.612Z,10.18
2023-03-27T21:51:46.798Z,8.85
2023-03-27T21:54:34.067Z,15.63
2023-03-27T21:57:21.429Z,12.88
2023-03-27T22:00:09.409Z,13.27
2023-03-27T22:03:05.677Z,12.18
2023-03-27T22:06:08.085Z,13.15
2023-03-27T22:08:58.672Z,10.35
2023-03-27T22:11:46.459Z,14.32
2023-03-27T22:14:33.652Z,10.50
2023-03-27T22:17:20.898Z,11.75
2023-03-27T22:20:08.467Z,11.68
2023-03-27T22:22:57.831Z,14.02
2023-03-27T22:25:54.741Z,15.77
2023-03-27T22:28:44.295Z,14.30
2023-03-27T22:31:32.402Z,18.35
2023-03-27T22:34:19.578Z,14.02
2023-03-27T22:37:08.851Z,20.77
2023-03-27T22:39:55.991Z,13.70
2023-03-27T22:42:43.165Z,18.15
2023-03-27T22:45:30.451Z,18.45
2023-03-27T22:48:17.668Z,22.58
2023-03-27T22:51:05.314Z,17.83
2023-03-27T22:53:56.723Z,20.17
2023-03-27T22:56:47.161Z,17.27
2023-03-27T22:59:34.710Z,16.23
2023-03-27T23:02:22.086Z,20.45
2023-03-27T23:05:12.087Z,21.23
2023-03-27T23:07:59.824Z,21.55
2023-03-27T23:10:53.786Z,23.73
2023-03-27T23:13:44.728Z,17.65
2023-03-27T23:16:33.290Z,28.85
2023-03-27T23:19:20.573Z,28.98
2023-03-27T23:22:07.731Z,20.60
2023-03-27T23:24:57.408Z,26.38
2023-03-27T23:27:45.064Z,17.20
2023-03-27T23:30:40.163Z,22.42
2023-03-27T23:33:28.946Z,24.42
2023-03-27T23:36:19.441Z,21.63
2023-03-27T23:39:10.246Z,18.27
2023-03-27T23:41:57.407Z,19.02
2023-03-27T23:44:44.733Z,19.67
2023-03-27T23:47:32.209Z,22.48
2023-03-27T23:50:19.347Z,24.38
2023-03-27T23:53:09.536Z,23.48
2023-03-27T23:55:59.302Z,22.73
2023-03-27T23:58:49.270Z,23.05
